Wilpen, Pennsylvania
Current Conditions -  °F | °C
As of 8:45 AM on Sunday 25 Jan 2015 (Local Time) from KLBE Reporting Station
Haze Haze  
Wind Chill: 26°   Ceiling: 1000
Heat Index: 32°   Visibility: 4mi
Dew Point: 32°   Wind: 7mph
Humidity: 100%   Direction: 210°SSW
Pressure: 29.78"   Gusts: NA
Location:  40.2437°N, 79.2397°W
Report Text: KLBE 251345Z 21006KT 4SM BR OVC010 00/00 A2978
Loading
Personal Weather Stations






























Interactive Weather Map New forecast layout! Learn more

10-Day Weather Forecast

Advertisements
Track Severe Weather on mobile